createdAt,value
2019-01-31T00:05:58.099Z,940.9
2019-01-31T00:16:01.772Z,940.9
2019-01-31T00:26:05.448Z,940.8
2019-01-31T00:36:09.129Z,940.8
2019-01-31T00:46:12.788Z,940.8
2019-01-31T00:56:16.451Z,940.7
2019-01-31T01:06:20.136Z,940.6
2019-01-31T01:16:23.810Z,940.6
2019-01-31T01:26:27.507Z,940.5
2019-01-31T01:36:31.172Z,940.5
2019-01-31T01:46:34.862Z,940.4
2019-01-31T01:56:38.517Z,940.3
2019-01-31T02:06:42.188Z,940.2
2019-01-31T02:16:45.858Z,940.1
2019-01-31T02:26:49.504Z,940.1
2019-01-31T02:36:53.176Z,940.3
2019-01-31T02:46:56.864Z,940.3
2019-01-31T02:57:00.522Z,940.5
2019-01-31T03:07:04.186Z,940.5
2019-01-31T03:17:07.853Z,940.5
2019-01-31T03:27:11.524Z,940.6
2019-01-31T03:37:15.201Z,940.6
2019-01-31T03:47:18.882Z,940.6
2019-01-31T03:57:22.550Z,940.6
2019-01-31T04:07:26.217Z,940.3
2019-01-31T04:17:29.880Z,940.3
2019-01-31T04:27:33.576Z,940.4
2019-01-31T04:37:37.366Z,940.5
2019-01-31T04:47:41.053Z,940.5
2019-01-31T04:57:44.771Z,940.5
2019-01-31T05:07:48.458Z,940.4
2019-01-31T05:17:52.130Z,940.5
2019-01-31T05:27:55.782Z,940.8
2019-01-31T05:37:59.459Z,940.8
2019-01-31T05:48:03.104Z,940.8
2019-01-31T05:58:06.770Z,940.6
2019-01-31T06:08:10.395Z,940.3
2019-01-31T06:18:14.064Z,940.1
2019-01-31T06:28:17.771Z,945.8
2019-01-31T06:38:21.443Z,942.2
2019-01-31T06:48:25.222Z,941.6
2019-01-31T06:58:28.894Z,941.4
2019-01-31T07:08:32.513Z,941
2019-01-31T07:18:36.191Z,940.9
2019-01-31T07:28:39.868Z,940.7
2019-01-31T07:38:43.532Z,940.5
2019-01-31T07:48:47.269Z,940.5
2019-01-31T07:58:51.029Z,940.7
2019-01-31T08:08:54.653Z,940.7
2019-01-31T08:18:58.335Z,940.7
2019-01-31T08:29:02.010Z,940.7
2019-01-31T08:39:05.725Z,940.7
2019-01-31T08:49:09.421Z,940.6
2019-01-31T08:59:13.103Z,940.7
2019-01-31T09:09:16.743Z,940.9
2019-01-31T09:19:20.419Z,941
2019-01-31T09:29:24.094Z,941
2019-01-31T09:39:27.771Z,941.1
2019-01-31T09:49:31.456Z,941.2
2019-01-31T09:59:35.210Z,941.4
2019-01-31T10:09:38.991Z,941.5
2019-01-31T10:19:43.107Z,941.5
2019-01-31T10:29:46.819Z,941.4
2019-01-31T10:39:50.532Z,941.4
2019-01-31T10:49:54.219Z,941.3
2019-01-31T10:59:58.002Z,941.1
2019-01-31T11:10:01.707Z,940.8
2019-01-31T11:20:05.380Z,940.6
2019-01-31T11:30:10.034Z,940.3
2019-01-31T11:40:13.705Z,940.1
2019-01-31T11:50:17.381Z,940.1
2019-01-31T12:00:21.059Z,939.7
2019-01-31T12:10:24.718Z,939.4
2019-01-31T12:20:28.385Z,939.3
2019-01-31T12:30:32.071Z,939.1
2019-01-31T12:40:35.846Z,938.7
2019-01-31T12:50:39.529Z,938.6
2019-01-31T13:00:43.242Z,938.4
2019-01-31T13:10:46.881Z,938.3
2019-01-31T13:20:50.563Z,938.2
2019-01-31T13:30:54.238Z,938
2019-01-31T13:40:57.910Z,938.2
2019-01-31T13:51:01.588Z,938.5
2019-01-31T14:01:05.264Z,938.4
2019-01-31T14:11:08.904Z,938.1
2019-01-31T14:21:12.584Z,937.8
2019-01-31T14:31:16.258Z,937.7
2019-01-31T14:41:19.896Z,944.4
2019-01-31T14:51:23.570Z,944.2
2019-01-31T15:01:27.325Z,944.1
2019-01-31T15:11:31.006Z,944.4
2019-01-31T15:21:34.689Z,944.2
2019-01-31T15:31:38.370Z,944.2
2019-01-31T15:41:42.066Z,944
2019-01-31T15:51:45.750Z,944
2019-01-31T16:01:49.401Z,943.9
2019-01-31T16:11:53.177Z,943.8
2019-01-31T16:21:56.845Z,937
2019-01-31T16:32:00.518Z,937.1
2019-01-31T16:42:04.196Z,937
2019-01-31T16:52:07.872Z,937.2
2019-01-31T17:02:11.572Z,937.2
2019-01-31T17:12:15.239Z,937.3
2019-01-31T17:22:18.901Z,937.3
2019-01-31T17:32:22.578Z,937.1
2019-01-31T17:42:26.262Z,937.2
2019-01-31T17:52:29.938Z,937.2
2019-01-31T18:02:46.075Z,937.2
2019-01-31T18:12:49.755Z,937.1
2019-01-31T18:22:53.446Z,937.1
2019-01-31T18:32:57.118Z,937
2019-01-31T18:43:00.820Z,936.7
2019-01-31T18:53:04.501Z,936.6
2019-01-31T19:03:08.174Z,936.4
2019-01-31T19:13:11.848Z,935.9
2019-01-31T19:23:15.528Z,935.8
2019-01-31T19:33:19.206Z,936
2019-01-31T19:43:22.983Z,935.7
2019-01-31T19:53:26.658Z,936.1
2019-01-31T20:03:30.347Z,936.3
2019-01-31T20:13:34.017Z,936.4
2019-01-31T20:23:37.689Z,936.7
2019-01-31T20:33:41.365Z,936.6
2019-01-31T20:43:45.049Z,936.9
2019-01-31T20:53:48.742Z,937
2019-01-31T21:03:52.457Z,937
2019-01-31T21:13:56.137Z,937
2019-01-31T21:23:59.832Z,936.9
2019-01-31T21:34:03.510Z,937
2019-01-31T21:44:07.186Z,936.7
2019-01-31T21:54:10.858Z,936.8
2019-01-31T22:04:14.542Z,936.5
2019-01-31T22:14:18.225Z,936.8
2019-01-31T22:24:21.894Z,936.7
2019-01-31T22:34:25.573Z,936.8
2019-01-31T22:44:29.255Z,936.2
2019-01-31T22:54:32.936Z,936.1
2019-01-31T23:04:36.643Z,936.1
2019-01-31T23:14:40.402Z,936.1
2019-01-31T23:24:44.029Z,936.1
2019-01-31T23:34:47.706Z,935.8
2019-01-31T23:44:51.432Z,935.5
2019-01-31T23:54:55.106Z,935.6
